Terminal Aerodrome Forecast
Issued by NWS Atlanta, GA

Home | Current Version | Previous Version | Text Only | Print | Product List | Glossary On
Versions: 1 2 3 4 5 6 7 8 9 10 11 12 13 14 15 16 17 18 19 20 21 22 23 24 25 26 27 28 29 30 31 32 33 34 35 36
320
FTAK31 PAJN 121509 AAA
TAFAHN
TAF AMD
PAHN 121509Z 1215/1312 30005KT P6SM -RA OVC040
     FM121900 07008KT 4SM -SHRA BR BKN015 OVC025
     FM122300 13008KT 5SM -SHRA BR SCT007 BKN015 OVC025
      WS020/17030KT
     FM130700 07008KT 6SM -SHRA BR SCT007 OVC015
      AMD LTD TO CLD VIS AND WIND=

USA.gov is the U.S. government's official web portal to all federal, state and local government web resources and services.